Time;durP1;ratioP1;P1;durP2;ratioP2;P2;SDS_P1;SDS_P2;PMS_P1;PMS_P2;Temp;Humidity;BMP_temperature;BMP_pressure;BME280_temperature;BME280_humidity;BME280_pressure;Samples;Min_cycle;Max_cycle;Signal;HPM_P1;HPM_P2
2022/03/24 00:01:40;;;;;;;15.25;12.15;;;10.60;63.50;;;;;;5048963;28;20356;-41
2022/03/24 00:04:06;;;;;;;16.63;12.70;;;10.60;63.50;;;;;;5049198;28;20031;-43
2022/03/24 00:06:32;;;;;;;15.25;11.93;;;10.50;63.50;;;;;;5047942;28;20040;-41
2022/03/24 00:08:58;;;;;;;17.45;12.20;;;10.50;63.70;;;;;;5047829;28;20052;-43
2022/03/24 00:11:23;;;;;;;18.15;13.23;;;10.50;63.70;;;;;;5049295;28;20751;-40
2022/03/24 00:13:49;;;;;;;19.52;12.55;;;10.40;63.90;;;;;;5047444;28;20498;-42
2022/03/24 00:16:19;;;;;;;17.83;12.63;;;10.40;64.00;;;;;;5049509;28;20025;-42
2022/03/24 00:18:45;;;;;;;17.48;12.00;;;10.30;64.10;;;;;;5047573;28;20917;-41
2022/03/24 00:21:11;;;;;;;16.70;12.50;;;10.30;64.20;;;;;;5047876;28;20032;-41
2022/03/24 00:23:36;;;;;;;16.63;11.63;;;10.30;64.30;;;;;;5048473;28;20131;-42
2022/03/24 00:26:03;;;;;;;17.05;11.90;;;10.20;64.40;;;;;;5047930;28;20115;-43
2022/03/24 00:28:28;;;;;;;20.23;12.55;;;10.20;64.50;;;;;;5048261;28;20025;-42
2022/03/24 00:30:53;;;;;;;18.13;12.63;;;10.20;64.60;;;;;;5048490;28;20028;-42
2022/03/24 00:33:19;;;;;;;18.45;12.48;;;10.10;64.80;;;;;;5047854;28;20025;-40
2022/03/24 00:35:45;;;;;;;19.23;12.50;;;10.10;64.80;;;;;;5047439;28;20763;-42
2022/03/24 00:38:10;;;;;;;17.20;12.15;;;10.00;64.90;;;;;;5048188;28;20090;-42
2022/03/24 00:40:36;;;;;;;16.50;11.98;;;10.00;65.00;;;;;;5048529;28;20534;-43
2022/03/24 00:43:02;;;;;;;23.02;13.43;;;10.00;65.10;;;;;;5047427;28;20031;-42
2022/03/24 00:45:27;;;;;;;18.00;13.38;;;10.00;65.20;;;;;;5044447;28;20032;-42
2022/03/24 00:47:53;;;;;;;22.45;12.88;;;10.00;65.30;;;;;;5047229;28;20140;-42
2022/03/24 00:50:19;;;;;;;14.90;11.70;;;10.00;65.30;;;;;;5047603;28;20040;-42
2022/03/24 00:52:45;;;;;;;17.55;11.80;;;9.90;65.30;;;;;;5047258;28;20032;-43
2022/03/24 00:55:20;;;;;;;22.33;13.80;;;9.90;65.50;;;;;;5046831;28;20469;-41
2022/03/24 00:57:49;;;;;;;20.15;13.35;;;9.80;65.60;;;;;;5047763;28;20037;-41
2022/03/24 01:00:17;;;;;;;20.20;13.68;;;9.80;65.80;;;;;;5048359;28;20048;-43
2022/03/24 01:02:48;;;;;;;21.00;13.57;;;9.80;65.90;;;;;;5047067;28;20483;-42
2022/03/24 01:05:18;;;;;;;23.92;15.65;;;9.80;66.00;;;;;;5048118;28;20029;-44
2022/03/24 01:07:44;;;;;;;19.98;14.30;;;9.80;66.00;;;;;;5047558;28;20040;-43
2022/03/24 01:10:11;;;;;;;19.38;14.13;;;9.80;66.00;;;;;;5047522;28;20024;-43
2022/03/24 01:12:39;;;;;;;22.52;14.18;;;9.80;66.10;;;;;;5048462;28;20036;-42
2022/03/24 01:15:09;;;;;;;20.40;14.70;;;9.70;66.10;;;;;;5046804;28;20031;-42
2022/03/24 01:17:36;;;;;;;23.23;14.25;;;9.70;66.20;;;;;;5047121;28;20495;-40
2022/03/24 01:20:03;;;;;;;21.38;13.90;;;9.70;66.30;;;;;;5047121;28;20025;-43
2022/03/24 01:22:28;;;;;;;18.95;13.20;;;9.70;66.40;;;;;;5047380;28;20033;-41
2022/03/24 01:24:55;;;;;;;19.65;13.70;;;9.60;66.50;;;;;;5046614;28;20024;-43
2022/03/24 01:27:25;;;;;;;19.92;14.13;;;9.60;66.60;;;;;;5047974;28;20028;-39
2022/03/24 01:29:54;;;;;;;22.95;15.43;;;9.60;66.70;;;;;;5046802;28;20025;-41
2022/03/24 01:32:20;;;;;;;21.40;14.80;;;9.60;66.80;;;;;;5047276;28;20033;-39
2022/03/24 01:34:45;;;;;;;18.73;13.60;;;9.60;67.00;;;;;;5046837;28;20036;-44
2022/03/24 01:37:11;;;;;;;20.48;13.93;;;9.50;66.90;;;;;;5046580;28;20020;-43
2022/03/24 01:39:37;;;;;;;22.02;15.90;;;9.50;67.00;;;;;;5047868;28;20033;-40
2022/03/24 01:42:05;;;;;;;22.20;15.13;;;9.50;67.30;;;;;;5046195;28;20025;-42
2022/03/24 01:44:31;;;;;;;21.50;14.00;;;9.40;67.30;;;;;;5046581;28;20033;-43
2022/03/24 01:47:08;;;;;;;21.70;14.73;;;9.40;67.40;;;;;;5046013;28;20408;-42
2022/03/24 01:49:40;;;;;;;22.83;14.35;;;9.40;67.40;;;;;;5047316;28;20039;-44
2022/03/24 01:52:07;;;;;;;18.73;14.00;;;9.40;67.50;;;;;;5045347;28;20065;-41
2022/03/24 01:54:39;;;;;;;21.52;15.02;;;9.40;67.50;;;;;;5046640;28;20560;-43
2022/03/24 01:57:08;;;;;;;22.70;15.15;;;9.40;67.70;;;;;;5045712;28;20357;-42
2022/03/24 01:59:37;;;;;;;19.75;14.45;;;9.40;67.80;;;;;;5046197;28;20043;-41
2022/03/24 02:02:03;;;;;;;22.88;15.07;;;9.30;67.90;;;;;;5046061;28;20614;-39
2022/03/24 02:04:30;;;;;;;20.50;14.90;;;9.30;68.00;;;;;;5046355;28;20110;-43
2022/03/24 02:06:56;;;;;;;18.92;13.75;;;9.30;68.10;;;;;;5045590;28;20041;-41
2022/03/24 02:09:21;;;;;;;20.42;13.65;;;9.20;68.10;;;;;;5046272;28;20040;-43
2022/03/24 02:11:47;;;;;;;21.27;14.55;;;9.20;68.10;;;;;;5045660;28;20029;-44
2022/03/24 02:14:12;;;;;;;27.10;14.90;;;9.20;68.20;;;;;;5046458;28;20086;-43
2022/03/24 02:16:40;;;;;;;22.88;15.57;;;9.10;68.20;;;;;;5046179;28;20380;-39
2022/03/24 02:19:17;;;;;;;24.63;15.35;;;9.10;68.40;;;;;;5046015;28;20040;-43
2022/03/24 02:21:44;;;;;;;27.45;16.27;;;9.10;68.50;;;;;;5045232;28;20902;-42
2022/03/24 02:24:12;;;;;;;21.42;14.40;;;9.10;68.50;;;;;;5046082;28;20024;-42
2022/03/24 02:26:42;;;;;;;21.08;14.23;;;9.00;68.60;;;;;;5045307;28;20124;-39
2022/03/24 02:29:10;;;;;;;19.98;14.73;;;9.00;68.70;;;;;;5045801;28;20036;-40
2022/03/24 02:31:38;;;;;;;21.42;13.27;;;9.00;68.70;;;;;;5046651;28;20031;-41
2022/03/24 02:36:51;;;;;;;22.33;15.15;;;9.00;68.80;;;;;;5045447;28;20056;-41
2022/03/24 02:39:17;;;;;;;22.17;14.02;;;9.00;68.80;;;;;;5045884;28;20166;-41
2022/03/24 02:41:48;;;;;;;20.92;14.13;;;9.00;68.80;;;;;;5044918;28;20482;-40
2022/03/24 02:44:17;;;;;;;21.35;15.40;;;9.00;68.90;;;;;;5045680;28;20087;-41
2022/03/24 02:46:44;;;;;;;21.02;14.40;;;8.90;68.90;;;;;;5045133;28;20690;-42
2022/03/24 02:49:10;;;;;;;21.65;14.10;;;8.90;68.90;;;;;;5045130;28;20569;-43
2022/03/24 02:51:36;;;;;;;20.40;13.25;;;8.80;68.90;;;;;;5046036;28;20017;-42
2022/03/24 02:54:04;;;;;;;19.15;13.77;;;8.80;69.10;;;;;;5045261;28;20053;-44
2022/03/24 02:56:29;;;;;;;18.75;13.80;;;8.80;69.20;;;;;;5045203;28;20039;-42
2022/03/24 02:58:55;;;;;;;20.15;13.75;;;8.70;69.20;;;;;;5044852;28;20476;-42
2022/03/24 03:01:21;;;;;;;18.70;13.52;;;8.70;69.20;;;;;;5046202;28;20128;-41
2022/03/24 03:03:46;;;;;;;18.75;13.57;;;8.70;69.40;;;;;;5044256;28;20618;-43
2022/03/24 03:06:13;;;;;;;20.38;13.65;;;8.60;69.50;;;;;;5045524;28;20021;-42
2022/03/24 03:08:38;;;;;;;21.95;14.93;;;8.60;69.70;;;;;;5044719;28;20136;-41
2022/03/24 03:11:04;;;;;;;19.58;14.05;;;8.50;69.90;;;;;;5044574;28;20117;-43
2022/03/24 03:13:29;;;;;;;21.05;14.60;;;8.50;70.10;;;;;;5045015;28;20029;-43
2022/03/24 03:15:55;;;;;;;21.10;14.60;;;8.40;70.10;;;;;;5044566;28;20021;-43
2022/03/24 03:18:20;;;;;;;18.65;14.02;;;8.40;70.20;;;;;;5044891;28;20044;-41
2022/03/24 03:20:47;;;;;;;21.50;14.85;;;8.40;70.30;;;;;;5044868;28;20117;-42
2022/03/24 03:23:13;;;;;;;19.17;14.15;;;8.40;70.30;;;;;;5044380;28;20021;-43
2022/03/24 03:25:38;;;;;;;22.17;15.38;;;8.40;70.30;;;;;;5044914;28;20043;-43
2022/03/24 03:28:06;;;;;;;23.75;15.10;;;8.40;70.40;;;;;;5043280;28;20150;-43
2022/03/24 03:30:32;;;;;;;21.63;15.85;;;8.30;70.40;;;;;;5044405;28;20068;-40
2022/03/24 03:32:58;;;;;;;21.20;14.43;;;8.30;70.40;;;;;;5044362;28;20470;-39
2022/03/24 03:35:23;;;;;;;18.00;13.27;;;8.30;70.40;;;;;;5044315;28;20037;-42
2022/03/24 03:37:49;;;;;;;20.33;13.73;;;8.30;70.50;;;;;;5043820;28;20045;-42
2022/03/24 03:40:14;;;;;;;20.00;14.30;;;8.20;70.50;;;;;;5044882;28;20115;-43
2022/03/24 03:42:40;;;;;;;23.00;14.55;;;8.20;70.60;;;;;;5045243;28;20021;-40
2022/03/24 03:45:06;;;;;;;23.20;15.18;;;8.20;70.70;;;;;;5044401;28;20052;-42
2022/03/24 03:47:31;;;;;;;21.23;14.48;;;8.10;70.90;;;;;;5044594;28;20029;-43
2022/03/24 03:49:57;;;;;;;22.48;14.75;;;8.00;71.40;;;;;;5044183;28;20049;-41
2022/03/24 03:52:23;;;;;;;23.13;14.60;;;8.00;71.80;;;;;;5044840;28;20021;-42
2022/03/24 03:54:48;;;;;;;22.35;15.52;;;7.90;72.30;;;;;;5043837;28;20044;-42
2022/03/24 03:57:14;;;;;;;21.33;15.30;;;7.80;72.70;;;;;;5044454;28;20485;-44
2022/03/24 03:59:39;;;;;;;25.27;16.60;;;7.80;72.90;;;;;;5043960;28;20056;-41
2022/03/24 04:02:05;;;;;;;24.55;15.02;;;7.70;73.10;;;;;;5044086;28;20067;-40
2022/03/24 04:04:31;;;;;;;25.33;16.13;;;7.60;73.30;;;;;;5044882;28;20636;-40
2022/03/24 04:06:57;;;;;;;25.15;15.65;;;7.60;73.50;;;;;;5043761;28;20021;-41
2022/03/24 04:09:22;;;;;;;23.52;15.98;;;7.60;73.90;;;;;;5044675;28;20052;-40
2022/03/24 04:11:48;;;;;;;23.83;16.00;;;7.50;74.20;;;;;;5043603;28;20370;-41
2022/03/24 04:14:14;;;;;;;23.25;15.55;;;7.50;74.40;;;;;;5044283;28;20361;-42
2022/03/24 04:16:39;;;;;;;21.30;14.98;;;7.50;74.60;;;;;;5044597;28;20025;-40
2022/03/24 04:19:07;;;;;;;24.27;16.58;;;7.50;74.80;;;;;;5044058;28;20044;-44
2022/03/24 04:21:32;;;;;;;25.85;16.20;;;7.40;74.80;;;;;;5044986;28;20146;-42
2022/03/24 04:23:58;;;;;;;25.17;16.85;;;7.40;75.10;;;;;;5043379;28;20770;-43
2022/03/24 04:26:23;;;;;;;23.23;16.23;;;7.30;75.30;;;;;;5044283;28;20025;-41
2022/03/24 04:28:49;;;;;;;22.35;16.02;;;7.30;75.50;;;;;;5043768;28;20079;-41
2022/03/24 04:31:15;;;;;;;22.85;16.15;;;7.30;75.70;;;;;;5044226;28;20029;-43
2022/03/24 04:33:40;;;;;;;22.45;16.30;;;7.20;76.00;;;;;;5044089;28;20112;-41
2022/03/24 04:36:10;;;;;;;23.58;16.13;;;7.20;76.20;;;;;;5044503;28;20059;-43
2022/03/24 04:38:37;;;;;;;23.15;15.70;;;7.10;76.30;;;;;;5044384;28;20037;-43
2022/03/24 04:41:03;;;;;;;22.83;15.50;;;7.10;76.50;;;;;;5046798;28;20051;-39
2022/03/24 04:43:29;;;;;;;22.75;15.73;;;7.10;76.60;;;;;;5048214;28;20029;-42
2022/03/24 04:45:54;;;;;;;22.27;16.23;;;7.00;76.70;;;;;;5047517;28;20452;-41
2022/03/24 04:48:20;;;;;;;22.50;15.70;;;7.00;77.00;;;;;;5047354;28;20025;-42
2022/03/24 04:50:46;;;;;;;23.70;16.88;;;6.90;77.10;;;;;;5047623;28;20029;-42
2022/03/24 04:53:14;;;;;;;21.40;15.80;;;6.90;77.30;;;;;;5047458;28;20059;-43
2022/03/24 04:55:41;;;;;;;21.85;15.95;;;6.90;77.40;;;;;;5047323;28;20045;-42
2022/03/24 04:58:06;;;;;;;22.95;15.88;;;6.80;77.50;;;;;;5047744;28;20044;-41
2022/03/24 05:00:32;;;;;;;24.77;17.02;;;6.80;77.80;;;;;;5047392;28;20013;-41
2022/03/24 05:02:59;;;;;;;23.55;16.45;;;6.80;78.10;;;;;;5046507;28;20074;-43
2022/03/24 05:05:24;;;;;;;25.02;17.50;;;6.70;78.20;;;;;;5047855;28;20488;-42
2022/03/24 05:07:50;;;;;;;27.08;18.63;;;6.70;78.50;;;;;;5046704;28;20095;-42
2022/03/24 05:10:16;;;;;;;23.00;16.90;;;6.70;78.70;;;;;;5047132;28;20035;-41
2022/03/24 05:12:42;;;;;;;23.52;17.33;;;6.70;78.90;;;;;;5046549;28;20027;-43
2022/03/24 05:15:13;;;;;;;26.15;17.25;;;6.60;79.10;;;;;;5046410;28;20021;-42
2022/03/24 05:17:39;;;;;;;25.35;16.83;;;6.60;79.30;;;;;;5047145;28;20036;-42
2022/03/24 05:20:05;;;;;;;22.73;16.38;;;6.60;79.40;;;;;;5046768;28;20033;-42
2022/03/24 05:22:30;;;;;;;23.00;15.90;;;6.60;79.40;;;;;;5046588;28;20033;-42
2022/03/24 05:24:56;;;;;;;23.40;17.38;;;6.50;79.50;;;;;;5046567;28;20621;-41
2022/03/24 05:27:22;;;;;;;24.45;17.42;;;6.50;79.60;;;;;;5046746;28;20032;-42
2022/03/24 05:29:47;;;;;;;24.08;16.92;;;6.40;79.60;;;;;;5045951;28;20377;-41
2022/03/24 05:32:13;;;;;;;23.30;16.63;;;6.40;79.70;;;;;;5047340;28;20141;-42
2022/03/24 05:34:38;;;;;;;24.58;16.65;;;6.40;79.80;;;;;;5046725;28;20029;-42
2022/03/24 05:37:04;;;;;;;24.08;16.17;;;6.40;79.80;;;;;;5046238;28;20732;-42
2022/03/24 05:39:29;;;;;;;25.10;16.13;;;6.40;79.90;;;;;;5046693;28;20505;-41
2022/03/24 05:41:57;;;;;;;24.20;17.48;;;6.40;79.80;;;;;;5046063;28;20033;-42
2022/03/24 05:44:23;;;;;;;25.15;17.73;;;6.40;80.00;;;;;;5046334;28;20044;-41
2022/03/24 05:46:48;;;;;;;23.50;16.23;;;6.40;80.00;;;;;;5046556;28;20029;-40
2022/03/24 05:49:17;;;;;;;25.13;17.05;;;6.40;80.00;;;;;;5046204;28;20021;-42
2022/03/24 05:51:43;;;;;;;23.23;16.90;;;6.40;80.10;;;;;;5045189;28;20029;-42
2022/03/24 05:54:13;;;;;;;25.90;16.92;;;6.40;80.10;;;;;;5046200;28;20052;-42
2022/03/24 05:56:39;;;;;;;24.42;16.90;;;6.40;80.20;;;;;;5046514;28;20025;-43
2022/03/24 05:59:05;;;;;;;24.95;17.95;;;6.40;80.20;;;;;;5045545;28;20037;-40
2022/03/24 06:01:30;;;;;;;23.77;15.88;;;6.40;80.30;;;;;;5046385;28;20094;-40
2022/03/24 06:03:59;;;;;;;25.25;16.55;;;6.40;80.10;;;;;;5045646;28;20087;-39
2022/03/24 06:06:26;;;;;;;21.30;16.75;;;6.40;79.80;;;;;;5046241;28;20028;-41
2022/03/24 06:08:56;;;;;;;23.63;16.15;;;6.50;79.80;;;;;;5046012;28;20379;-40
2022/03/24 06:11:23;;;;;;;23.45;16.80;;;6.50;79.80;;;;;;5042923;28;20021;-37
2022/03/24 06:13:48;;;;;;;25.70;17.63;;;6.50;79.90;;;;;;5046137;28;20017;-41
2022/03/24 06:16:14;;;;;;;23.23;16.40;;;6.50;79.90;;;;;;5046032;28;20021;-41
2022/03/24 06:18:41;;;;;;;23.02;16.27;;;6.50;79.80;;;;;;5046007;28;20060;-40
2022/03/24 06:21:07;;;;;;;23.33;16.55;;;6.50;79.70;;;;;;5045903;28;20048;-40
2022/03/24 06:23:33;;;;;;;23.25;15.73;;;6.50;79.60;;;;;;5046215;28;20067;-42
2022/03/24 06:25:59;;;;;;;24.13;15.90;;;6.60;79.70;;;;;;5044947;28;20025;-42
2022/03/24 06:28:24;;;;;;;22.50;14.77;;;6.60;79.80;;;;;;5046867;28;20563;-43
2022/03/24 06:30:51;;;;;;;22.80;15.48;;;6.60;79.80;;;;;;5045510;28;20025;-41
2022/03/24 06:33:17;;;;;;;23.60;15.80;;;6.60;79.70;;;;;;5045555;28;20047;-43
2022/03/24 06:35:44;;;;;;;22.60;14.65;;;6.70;79.50;;;;;;5045222;28;20044;-42
2022/03/24 06:38:11;;;;;;;21.50;15.18;;;6.70;79.40;;;;;;5045967;28;20119;-41
2022/03/24 06:40:38;;;;;;;22.75;14.90;;;6.80;79.20;;;;;;5045127;28;20072;-42
2022/03/24 06:43:05;;;;;;;23.20;15.75;;;6.90;79.10;;;;;;5045424;28;20119;-43
2022/03/24 06:45:30;;;;;;;24.83;16.15;;;7.00;78.90;;;;;;5045688;28;20021;-41
2022/03/24 06:47:56;;;;;;;23.27;15.82;;;7.10;78.70;;;;;;5044513;28;20024;-42
2022/03/24 06:50:22;;;;;;;20.05;14.82;;;7.20;78.60;;;;;;5045376;28;20052;-44
2022/03/24 06:52:47;;;;;;;26.65;16.92;;;7.30;78.40;;;;;;5044745;28;20013;-47
2022/03/24 06:55:13;;;;;;;22.48;15.38;;;7.40;78.20;;;;;;5044713;28;20412;-44
2022/03/24 06:57:39;;;;;;;24.10;16.05;;;7.50;78.00;;;;;;5045116;28;20029;-42
2022/03/24 07:00:06;;;;;;;22.27;14.20;;;7.50;77.90;;;;;;5044706;28;20107;-42
2022/03/24 07:02:32;;;;;;;23.02;15.10;;;7.60;77.80;;;;;;5044088;28;20063;-42
2022/03/24 07:04:57;;;;;;;22.77;16.65;;;7.70;77.80;;;;;;5045475;28;20241;-42
2022/03/24 07:07:23;;;;;;;22.63;15.68;;;7.80;77.60;;;;;;5045317;28;20021;-43
2022/03/24 07:09:49;;;;;;;26.30;18.58;;;7.80;77.40;;;;;;5044363;28;20083;-42
2022/03/24 07:12:19;;;;;;;24.85;17.05;;;8.00;77.10;;;;;;5045601;28;20048;-42
2022/03/24 07:14:45;;;;;;;26.42;18.02;;;8.10;76.90;;;;;;5044473;28;20032;-43
2022/03/24 07:17:11;;;;;;;28.00;18.95;;;8.10;76.70;;;;;;5045052;28;20391;-40
2022/03/24 07:19:37;;;;;;;26.40;17.38;;;8.20;76.70;;;;;;5045433;28;20044;-41
2022/03/24 07:22:03;;;;;;;27.10;17.15;;;8.20;76.60;;;;;;5043937;28;20013;-42
2022/03/24 07:24:29;;;;;;;23.20;15.48;;;8.30;76.50;;;;;;5045521;28;20037;-39
2022/03/24 07:26:54;;;;;;;24.85;16.65;;;8.30;76.40;;;;;;5044523;28;20571;-39
2022/03/24 07:29:20;;;;;;;26.58;17.15;;;8.40;76.20;;;;;;5045053;28;20028;-41
2022/03/24 07:31:45;;;;;;;25.73;16.88;;;8.60;76.10;;;;;;5044746;28;20031;-42
2022/03/24 07:34:11;;;;;;;27.40;16.88;;;8.70;75.90;;;;;;5044742;28;20056;-42
2022/03/24 07:36:37;;;;;;;25.73;16.73;;;8.80;75.70;;;;;;5044797;28;20033;-41
2022/03/24 07:39:03;;;;;;;21.30;15.45;;;8.80;75.70;;;;;;5044251;28;20040;-42
2022/03/24 07:41:29;;;;;;;21.65;15.98;;;8.90;75.90;;;;;;5044970;28;20029;-41
2022/03/24 07:43:55;;;;;;;21.58;14.35;;;8.80;76.10;;;;;;5044471;28;20075;-41
2022/03/24 07:46:20;;;;;;;22.13;15.65;;;8.80;76.50;;;;;;5045318;28;20060;-43
2022/03/24 07:48:47;;;;;;;23.48;16.55;;;8.90;76.80;;;;;;5044015;28;20112;-44
2022/03/24 07:51:13;;;;;;;18.95;14.27;;;8.90;77.20;;;;;;5044565;28;20103;-42
2022/03/24 07:53:47;;;;;;;19.30;14.30;;;8.90;77.70;;;;;;5044460;28;20133;-41
2022/03/24 07:56:14;;;;;;;17.73;14.00;;;8.90;78.10;;;;;;5045270;28;20449;-43
2022/03/24 07:58:40;;;;;;;19.80;14.90;;;8.90;78.50;;;;;;5044348;28;20044;-43
2022/03/24 08:01:06;;;;;;;17.60;13.40;;;8.90;78.90;;;;;;5044820;28;20025;-41
2022/03/24 08:03:34;;;;;;;19.45;13.95;;;9.00;79.40;;;;;;5044527;28;20028;-42
2022/03/24 08:06:01;;;;;;;17.85;13.43;;;9.00;79.70;;;;;;5043879;28;20025;-43
2022/03/24 08:08:26;;;;;;;19.50;13.68;;;9.10;79.90;;;;;;5044627;28;20025;-43
2022/03/24 08:10:53;;;;;;;20.58;14.60;;;9.10;80.20;;;;;;5044402;28;20071;-42
2022/03/24 08:13:20;;;;;;;18.50;13.55;;;9.20;80.50;;;;;;5044791;28;20079;-42
2022/03/24 08:15:47;;;;;;;20.48;13.63;;;9.20;80.60;;;;;;5046938;28;20036;-43
2022/03/24 08:18:14;;;;;;;18.00;13.82;;;9.30;80.70;;;;;;5047974;28;20059;-42
2022/03/24 08:20:40;;;;;;;17.33;13.65;;;9.40;80.80;;;;;;5044800;28;20031;-41
2022/03/24 08:23:08;;;;;;;18.42;13.55;;;9.50;80.90;;;;;;5048828;28;20024;-43
2022/03/24 08:25:34;;;;;;;18.25;14.52;;;9.60;80.90;;;;;;5047993;28;20159;-41
2022/03/24 08:28:00;;;;;;;17.60;13.18;;;9.70;80.80;;;;;;5047775;28;20490;-41
2022/03/24 08:30:26;;;;;;;19.20;13.57;;;9.80;80.80;;;;;;5048898;28;20025;-42
2022/03/24 08:32:52;;;;;;;17.05;12.13;;;9.90;80.60;;;;;;5047584;28;20095;-40
2022/03/24 08:35:18;;;;;;;17.80;13.88;;;10.10;80.20;;;;;;5048088;28;20817;-42
2022/03/24 08:37:44;;;;;;;20.73;14.30;;;10.20;79.10;;;;;;5047949;28;20041;-44
2022/03/24 08:40:10;;;;;;;17.40;13.68;;;10.40;79.20;;;;;;5047512;28;20496;-40
2022/03/24 08:42:38;;;;;;;20.23;15.13;;;10.50;78.60;;;;;;5048017;28;20025;-41
2022/03/24 08:45:05;;;;;;;21.30;14.70;;;10.60;78.90;;;;;;5047392;28;20025;-43
2022/03/24 08:47:31;;;;;;;19.77;15.20;;;10.70;79.20;;;;;;5047718;28;20089;-41
2022/03/24 08:49:56;;;;;;;18.42;13.35;;;10.90;78.50;;;;;;5047780;28;20052;-42
2022/03/24 08:52:22;;;;;;;17.73;12.65;;;11.10;77.50;;;;;;5047227;28;20234;-42
2022/03/24 08:54:49;;;;;;;17.20;13.65;;;11.30;76.20;;;;;;5046558;28;20057;-40
2022/03/24 08:57:14;;;;;;;18.33;14.48;;;11.50;74.90;;;;;;5048004;28;20025;-44
2022/03/24 08:59:40;;;;;;;18.42;13.73;;;11.70;72.20;;;;;;5047518;28;20587;-42
2022/03/24 09:02:05;;;;;;;19.73;14.68;;;11.90;71.30;;;;;;5047190;28;20434;-42
2022/03/24 09:04:31;;;;;;;21.90;16.73;;;12.00;70.20;;;;;;5047983;28;20507;-41
2022/03/24 09:06:57;;;;;;;23.13;15.88;;;12.20;68.60;;;;;;5046913;28;20021;-41
2022/03/24 09:09:22;;;;;;;17.50;14.75;;;12.30;67.70;;;;;;5047226;28;20048;-42
2022/03/24 09:11:49;;;;;;;22.10;16.25;;;12.50;67.80;;;;;;5046867;28;20872;-42
2022/03/24 09:14:16;;;;;;;24.00;16.77;;;12.60;67.40;;;;;;5047194;28;20029;-43
2022/03/24 09:16:41;;;;;;;20.55;16.70;;;12.70;66.40;;;;;;5046775;28;20032;-42
2022/03/24 09:19:08;;;;;;;23.27;17.42;;;12.90;65.30;;;;;;5047882;28;20037;-41
2022/03/24 09:21:34;;;;;;;22.05;16.38;;;13.10;65.50;;;;;;5046801;28;20036;-39
2022/03/24 09:23:59;;;;;;;21.10;16.60;;;13.20;64.90;;;;;;5047164;28;20086;-40
2022/03/24 09:26:25;;;;;;;21.80;16.95;;;13.20;64.50;;;;;;5047147;28;20112;-40
2022/03/24 09:28:52;;;;;;;25.88;18.75;;;13.40;64.40;;;;;;5046145;28;20021;-44
2022/03/24 09:31:19;;;;;;;21.27;16.38;;;13.40;64.10;;;;;;5047170;28;20144;-42
2022/03/24 09:33:45;;;;;;;23.02;15.90;;;13.60;63.90;;;;;;5046384;28;20029;-41
2022/03/24 09:36:11;;;;;;;21.88;17.23;;;13.70;64.00;;;;;;5046519;28;20384;-42
2022/03/24 09:38:37;;;;;;;22.52;15.32;;;13.80;63.70;;;;;;5047421;28;20036;-41
2022/03/24 09:41:05;;;;;;;23.77;16.48;;;13.80;64.00;;;;;;5045955;28;20017;-43
2022/03/24 09:43:32;;;;;;;23.33;16.30;;;13.90;63.60;;;;;;5046659;28;20128;-42
2022/03/24 09:45:58;;;;;;;21.25;15.70;;;14.00;63.50;;;;;;5046456;28;20057;-43
2022/03/24 09:48:23;;;;;;;23.00;16.05;;;14.10;63.50;;;;;;5046511;28;20024;-41
2022/03/24 09:50:49;;;;;;;27.25;16.10;;;14.10;63.70;;;;;;5045632;28;20091;-39
2022/03/24 09:53:16;;;;;;;20.73;14.30;;;14.20;63.70;;;;;;5046114;28;20033;-42
2022/03/24 09:55:42;;;;;;;28.42;15.50;;;14.30;63.90;;;;;;5046475;28;20036;-40
2022/03/24 09:58:08;;;;;;;20.42;14.38;;;14.30;63.70;;;;;;5045749;28;20041;-42
2022/03/24 10:00:35;;;;;;;19.45;13.70;;;14.40;63.70;;;;;;5047075;28;20036;-41
2022/03/24 10:03:12;;;;;;;20.50;14.60;;;14.40;63.60;;;;;;5046073;28;20096;-42
2022/03/24 10:05:56;;;;;;;17.45;13.57;;;14.50;62.70;;;;;;5045773;28;20392;-42
2022/03/24 10:08:22;;;;;;;20.17;13.90;;;14.60;63.50;;;;;;5046223;28;20040;-40
2022/03/24 10:10:48;;;;;;;19.92;13.82;;;14.60;62.60;;;;;;5045496;28;20044;-42
2022/03/24 10:13:43;;;;;;;17.23;13.23;;;14.70;62.30;;;;;;5046370;28;20025;-43
2022/03/24 10:16:10;;;;;;;19.48;14.27;;;14.90;62.20;;;;;;5045595;28;20501;-43
2022/03/24 10:18:36;;;;;;;19.20;13.05;;;14.90;61.50;;;;;;5045791;28;20037;-41
2022/03/24 10:21:05;;;;;;;14.85;12.23;;;15.00;61.90;;;;;;5045502;28;20028;-42
2022/03/24 10:23:43;;;;;;;23.40;16.13;;;15.00;62.00;;;;;;5045680;28;20025;-41
2022/03/24 10:26:08;;;;;;;18.75;14.05;;;15.00;61.10;;;;;;5046242;28;20025;-41
2022/03/24 10:28:34;;;;;;;19.45;13.52;;;15.00;61.10;;;;;;5046110;28;20052;-42
2022/03/24 10:31:02;;;;;;;22.80;15.90;;;15.10;61.10;;;;;;5045287;28;20083;-42
2022/03/24 10:33:35;;;;;;;25.55;15.63;;;15.10;60.70;;;;;;5045726;28;20095;-42
2022/03/24 10:36:15;;;;;;;18.65;13.77;;;15.20;61.00;;;;;;5045262;28;20049;-41
2022/03/24 10:38:47;;;;;;;22.05;14.95;;;15.20;61.10;;;;;;5045041;28;20156;-43
2022/03/24 10:41:21;;;;;;;20.58;14.10;;;15.20;60.70;;;;;;5045887;28;20032;-43
2022/03/24 10:43:49;;;;;;;17.42;12.98;;;15.30;61.00;;;;;;5045144;28;20045;-43
2022/03/24 10:46:18;;;;;;;18.30;13.38;;;15.30;61.00;;;;;;5045441;28;20029;-41
2022/03/24 10:48:44;;;;;;;22.88;14.05;;;15.30;60.70;;;;;;5045175;28;20494;-42
2022/03/24 10:51:10;;;;;;;19.52;14.05;;;15.30;60.50;;;;;;5045557;28;20469;-41
2022/03/24 10:53:40;;;;;;;18.15;13.50;;;15.30;60.20;;;;;;5044773;28;20068;-42
2022/03/24 10:56:17;;;;;;;17.95;12.73;;;15.40;60.10;;;;;;5045992;28;20540;-43
2022/03/24 10:58:54;;;;;;;18.52;12.57;;;15.40;59.30;;;;;;5044914;28;20040;-43
2022/03/24 11:01:21;;;;;;;20.13;14.35;;;15.40;59.00;;;;;;5045106;28;20837;-43
2022/03/24 11:03:47;;;;;;;23.55;17.45;;;15.50;58.40;;;;;;5045573;28;20025;-43
2022/03/24 11:06:18;;;;;;;22.00;15.50;;;15.50;57.60;;;;;;5045703;28;20115;-42
2022/03/24 11:08:50;;;;;;;25.67;16.92;;;15.60;57.70;;;;;;5044777;28;20427;-41
2022/03/24 11:11:16;;;;;;;20.60;16.08;;;15.60;56.60;;;;;;5044046;28;20388;-42
2022/03/24 11:14:03;;;;;;;19.30;14.75;;;15.70;56.60;;;;;;5045497;28;20017;-41
2022/03/24 11:16:32;;;;;;;18.88;13.90;;;15.70;57.10;;;;;;5045177;28;20082;-41
2022/03/24 11:19:00;;;;;;;17.65;13.52;;;15.70;57.10;;;;;;5044252;28;20128;-42
2022/03/24 11:21:42;;;;;;;16.58;13.30;;;15.80;56.90;;;;;;5045327;28;20021;-42
2022/03/24 11:24:08;;;;;;;20.25;13.75;;;15.80;57.00;;;;;;5045342;28;20562;-42
2022/03/24 11:26:35;;;;;;;17.55;14.77;;;15.90;56.70;;;;;;5044604;28;20029;-43
2022/03/24 11:29:02;;;;;;;18.35;14.27;;;16.00;56.60;;;;;;5044316;28;20039;-42
2022/03/24 11:31:34;;;;;;;18.17;14.00;;;16.00;56.40;;;;;;5044509;28;20534;-42
2022/03/24 11:34:04;;;;;;;24.20;16.77;;;16.10;56.20;;;;;;5044303;28;20836;-41
2022/03/24 11:36:30;;;;;;;21.38;15.75;;;16.10;55.20;;;;;;5044537;28;20844;-43
2022/03/24 11:38:59;;;;;;;18.05;14.27;;;16.20;55.60;;;;;;5043936;28;20373;-42
2022/03/24 11:41:42;;;;;;;21.17;14.88;;;16.20;55.90;;;;;;5044790;28;20223;-42
2022/03/24 11:44:14;;;;;;;19.70;15.10;;;16.20;55.60;;;;;;5044365;28;20036;-42
2022/03/24 11:46:45;;;;;;;;;;;16.20;54.90;;;;;;5045535;28;20070;-42
2022/03/24 11:49:26;;;;;;;17.67;12.80;;;16.30;55.20;;;;;;5045141;28;19906;-42
2022/03/24 11:51:57;;;;;;;18.75;14.75;;;16.30;55.00;;;;;;5048203;28;20534;-41
2022/03/24 11:54:38;;;;;;;15.20;12.45;;;16.30;54.60;;;;;;5048762;28;20060;-38
2022/03/24 11:57:22;;;;;;;15.77;11.43;;;16.40;55.00;;;;;;5047700;28;20037;-43
2022/03/24 11:59:49;;;;;;;14.43;11.02;;;16.40;55.00;;;;;;5028904;28;20037;-43
2022/03/24 12:02:19;;;;;;;16.33;11.48;;;16.40;55.10;;;;;;5045812;28;20060;-42
2022/03/24 12:04:49;;;;;;;14.40;11.45;;;16.40;54.90;;;;;;5048235;28;20035;-40
2022/03/24 12:07:20;;;;;;;17.38;11.65;;;16.40;54.30;;;;;;5048556;28;20257;-42
2022/03/24 12:10:02;;;;;;;16.30;10.90;;;16.50;53.30;;;;;;5048604;28;20044;-42
2022/03/24 12:12:29;;;;;;;17.53;10.93;;;16.50;52.30;;;;;;5049050;28;20029;-42
2022/03/24 12:14:55;;;;;;;14.75;10.95;;;16.60;52.40;;;;;;5048428;28;20037;-41
2022/03/24 12:17:28;;;;;;;11.27;9.50;;;16.70;52.80;;;;;;5048673;28;20031;-42
2022/03/24 12:19:55;;;;;;;14.63;10.82;;;16.70;53.00;;;;;;5048445;28;20219;-41
2022/03/24 12:22:30;;;;;;;12.80;10.43;;;16.70;52.90;;;;;;5048207;28;20025;-41
2022/03/24 12:24:59;;;;;;;12.20;9.48;;;16.60;52.60;;;;;;5047855;28;20043;-43
2022/03/24 12:27:25;;;;;;;12.85;9.77;;;16.60;52.90;;;;;;5048917;28;20556;-39
2022/03/24 12:30:13;;;;;;;10.00;8.20;;;16.70;53.10;;;;;;5047842;28;20064;-40
2022/03/24 12:32:40;;;;;;;16.73;10.93;;;16.70;53.20;;;;;;5047569;28;20033;-41
2022/03/24 12:35:07;;;;;;;15.90;10.82;;;16.70;52.30;;;;;;5048423;28;20029;-40
2022/03/24 12:37:35;;;;;;;16.30;11.10;;;16.80;53.00;;;;;;5048377;28;20044;-41